KPRO/PRO METAR and TAF weather

Enter ICAO airport designator
Station Type Date Time Source
KPRO METAR 2022/01/29 13:35 UTC NOAA

KPRO 291335Z AUTO 15006KT 10SM CLR M11/M14 A3002 RMK AO2 T11081145


Station Type Date Time Source
KPRO Decoded METAR 2022/01/29 13:35 UTC NOAA

Station name not available
Jan 29, 2022 - 08:35 AM EST / 2022.01.29 1335 UTC
Wind: from the SSE (150 degrees) at 7 MPH (6 KT):0
Visibility: 10 mile(s):0
Sky conditions: clear
Temperature: 12.6 F (-10.8 C)
Windchill: 1 F (-17 C):1
Dew Point: 5.9 F (-14.5 C)
Relative Humidity: 74%
Pressure (altimeter): 30.02 in. Hg (1016 hPa)
ob: KPRO 291335Z AUTO 15006KT 10SM CLR M11/M14 A3002 RMK AO2 T11081145
cycle: 13

Station Type Date Time Source
KPRO TAF UTC NOAA

Error!

Example: see airport list